sensor_id;sensor_type;location;lat;lon;timestamp;temperature;humidity
64599;SHT31;51008;51.504;11.548;2022-12-07T00:02:23;0.69;98.95
64599;SHT31;51008;51.504;11.548;2022-12-07T00:07:24;0.66;98.89
64599;SHT31;51008;51.504;11.548;2022-12-07T00:12:25;0.70;99.00
64599;SHT31;51008;51.504;11.548;2022-12-07T00:17:26;0.66;98.64
64599;SHT31;51008;51.504;11.548;2022-12-07T00:22:27;0.64;98.89
64599;SHT31;51008;51.504;11.548;2022-12-07T00:27:28;0.62;99.09
64599;SHT31;51008;51.504;11.548;2022-12-07T00:32:29;0.64;99.39
64599;SHT31;51008;51.504;11.548;2022-12-07T00:37:30;0.61;99.51
64599;SHT31;51008;51.504;11.548;2022-12-07T00:42:31;0.61;99.46
64599;SHT31;51008;51.504;11.548;2022-12-07T00:47:32;0.69;99.46
64599;SHT31;51008;51.504;11.548;2022-12-07T00:52:33;0.59;99.99
64599;SHT31;51008;51.504;11.548;2022-12-07T00:57:34;0.61;99.99
64599;SHT31;51008;51.504;11.548;2022-12-07T01:02:35;0.69;99.99
64599;SHT31;51008;51.504;11.548;2022-12-07T01:07:42;0.76;99.99
64599;SHT31;51008;51.504;11.548;2022-12-07T01:12:43;0.85;99.99
64599;SHT31;51008;51.504;11.548;2022-12-07T01:17:44;0.85;99.99
64599;SHT31;51008;51.504;11.548;2022-12-07T01:22:45;0.96;99.96
64599;SHT31;51008;51.504;11.548;2022-12-07T01:27:46;0.96;99.91
64599;SHT31;51008;51.504;11.548;2022-12-07T01:32:47;1.04;99.53
64599;SHT31;51008;51.504;11.548;2022-12-07T01:37:53;1.01;99.51
64599;SHT31;51008;51.504;11.548;2022-12-07T01:42:54;1.05;99.46
64599;SHT31;51008;51.504;11.548;2022-12-07T01:47:56;1.10;99.46
64599;SHT31;51008;51.504;11.548;2022-12-07T01:52:59;1.11;99.44
64599;SHT31;51008;51.504;11.548;2022-12-07T01:58:02;1.17;99.36
64599;SHT31;51008;51.504;11.548;2022-12-07T02:03:16;1.16;99.19
64599;SHT31;51008;51.504;11.548;2022-12-07T02:08:19;1.10;99.35
64599;SHT31;51008;51.504;11.548;2022-12-07T02:13:26;1.17;99.20
64599;SHT31;51008;51.504;11.548;2022-12-07T02:29:22;1.18;98.86
64599;SHT31;51008;51.504;11.548;2022-12-07T02:35:06;1.16;98.89
64599;SHT31;51008;51.504;11.548;2022-12-07T02:40:18;1.13;99.09
64599;SHT31;51008;51.504;11.548;2022-12-07T02:45:25;1.14;99.21
64599;SHT31;51008;51.504;11.548;2022-12-07T02:50:28;1.14;98.99
64599;SHT31;51008;51.504;11.548;2022-12-07T02:55:34;1.16;98.72
64599;SHT31;51008;51.504;11.548;2022-12-07T03:00:50;1.18;98.48
64599;SHT31;51008;51.504;11.548;2022-12-07T03:06:07;1.17;98.69
64599;SHT31;51008;51.504;11.548;2022-12-07T03:11:26;1.21;98.76
64599;SHT31;51008;51.504;11.548;2022-12-07T03:16:35;1.28;98.59
64599;SHT31;51008;51.504;11.548;2022-12-07T03:21:44;1.27;98.82
64599;SHT31;51008;51.504;11.548;2022-12-07T03:27:00;1.26;98.90
64599;SHT31;51008;51.504;11.548;2022-12-07T03:32:10;1.27;99.04
64599;SHT31;51008;51.504;11.548;2022-12-07T03:37:18;1.21;99.20
64599;SHT31;51008;51.504;11.548;2022-12-07T03:42:22;1.27;99.21
64599;SHT31;51008;51.504;11.548;2022-12-07T03:47:30;1.27;99.57
64599;SHT31;51008;51.504;11.548;2022-12-07T03:52:39;1.34;99.79
64599;SHT31;51008;51.504;11.548;2022-12-07T03:57:42;1.37;99.85
64599;SHT31;51008;51.504;11.548;2022-12-07T04:02:44;1.38;99.76
64599;SHT31;51008;51.504;11.548;2022-12-07T04:07:45;1.39;99.94
64599;SHT31;51008;51.504;11.548;2022-12-07T04:12:46;1.41;99.99
64599;SHT31;51008;51.504;11.548;2022-12-07T04:17:47;1.49;99.99
64599;SHT31;51008;51.504;11.548;2022-12-07T04:22:48;1.49;99.99
64599;SHT31;51008;51.504;11.548;2022-12-07T04:27:49;1.48;99.99
64599;SHT31;51008;51.504;11.548;2022-12-07T04:32:50;1.49;99.99
64599;SHT31;51008;51.504;11.548;2022-12-07T04:37:51;1.52;99.99
64599;SHT31;51008;51.504;11.548;2022-12-07T04:42:52;1.54;99.99
64599;SHT31;51008;51.504;11.548;2022-12-07T04:47:53;1.52;99.99
64599;SHT31;51008;51.504;11.548;2022-12-07T04:52:55;1.55;99.99
64599;SHT31;51008;51.504;11.548;2022-12-07T04:57:55;1.54;99.99
64599;SHT31;51008;51.504;11.548;2022-12-07T05:02:57;1.63;99.99
64599;SHT31;51008;51.504;11.548;2022-12-07T05:07:58;1.58;99.99
64599;SHT31;51008;51.504;11.548;2022-12-07T05:12:59;1.67;99.99
64599;SHT31;51008;51.504;11.548;2022-12-07T05:18:00;1.77;99.99
64599;SHT31;51008;51.504;11.548;2022-12-07T05:23:01;1.80;99.99
64599;SHT31;51008;51.504;11.548;2022-12-07T05:28:02;1.79;99.99
64599;SHT31;51008;51.504;11.548;2022-12-07T05:33:04;1.80;99.99
64599;SHT31;51008;51.504;11.548;2022-12-07T05:38:05;1.77;99.99
64599;SHT31;51008;51.504;11.548;2022-12-07T05:43:06;1.72;99.99
64599;SHT31;51008;51.504;11.548;2022-12-07T05:48:07;1.80;99.99
64599;SHT31;51008;51.504;11.548;2022-12-07T05:53:08;1.74;99.84
64599;SHT31;51008;51.504;11.548;2022-12-07T05:58:09;1.67;99.99
64599;SHT31;51008;51.504;11.548;2022-12-07T06:03:10;1.65;99.99
64599;SHT31;51008;51.504;11.548;2022-12-07T06:08:11;1.70;99.99
64599;SHT31;51008;51.504;11.548;2022-12-07T06:13:12;1.74;99.99
64599;SHT31;51008;51.504;11.548;2022-12-07T06:18:13;1.72;99.99
64599;SHT31;51008;51.504;11.548;2022-12-07T06:23:14;1.60;99.99
64599;SHT31;51008;51.504;11.548;2022-12-07T06:28:15;1.70;99.99
64599;SHT31;51008;51.504;11.548;2022-12-07T06:33:16;1.72;99.99
64599;SHT31;51008;51.504;11.548;2022-12-07T06:38:17;1.70;99.91
64599;SHT31;51008;51.504;11.548;2022-12-07T06:43:18;1.59;99.99
64599;SHT31;51008;51.504;11.548;2022-12-07T06:48:19;1.56;99.99
64599;SHT31;51008;51.504;11.548;2022-12-07T06:53:21;1.49;99.99
64599;SHT31;51008;51.504;11.548;2022-12-07T06:58:22;1.52;99.99
64599;SHT31;51008;51.504;11.548;2022-12-07T07:03:23;1.54;99.99
64599;SHT31;51008;51.504;11.548;2022-12-07T07:08:25;1.58;99.99
64599;SHT31;51008;51.504;11.548;2022-12-07T07:13:26;1.66;99.99
64599;SHT31;51008;51.504;11.548;2022-12-07T07:18:28;1.73;99.99
64599;SHT31;51008;51.504;11.548;2022-12-07T07:23:29;1.90;99.53
64599;SHT31;51008;51.504;11.548;2022-12-07T07:28:30;2.04;99.28
64599;SHT31;51008;51.504;11.548;2022-12-07T07:33:31;2.18;99.31
64599;SHT31;51008;51.504;11.548;2022-12-07T07:38:32;2.27;99.06
64599;SHT31;51008;51.504;11.548;2022-12-07T07:43:33;2.41;98.60
64599;SHT31;51008;51.504;11.548;2022-12-07T07:48:34;2.34;98.62
64599;SHT31;51008;51.504;11.548;2022-12-07T07:53:35;2.28;98.67
64599;SHT31;51008;51.504;11.548;2022-12-07T07:58:36;2.36;98.52
64599;SHT31;51008;51.504;11.548;2022-12-07T08:03:37;2.36;98.53
64599;SHT31;51008;51.504;11.548;2022-12-07T08:08:38;2.42;98.86
64599;SHT31;51008;51.504;11.548;2022-12-07T08:13:39;2.52;99.04
64599;SHT31;51008;51.504;11.548;2022-12-07T08:18:41;2.56;98.99
64599;SHT31;51008;51.504;11.548;2022-12-07T08:23:42;2.53;98.83
64599;SHT31;51008;51.504;11.548;2022-12-07T08:28:43;2.54;99.09
64599;SHT31;51008;51.504;11.548;2022-12-07T08:33:46;2.60;98.97
64599;SHT31;51008;51.504;11.548;2022-12-07T08:38:47;2.64;98.93
64599;SHT31;51008;51.504;11.548;2022-12-07T08:43:48;2.77;98.89
64599;SHT31;51008;51.504;11.548;2022-12-07T08:48:52;2.91;98.25
64599;SHT31;51008;51.504;11.548;2022-12-07T08:53:56;3.01;98.27
64599;SHT31;51008;51.504;11.548;2022-12-07T08:58:59;3.09;98.01
64599;SHT31;51008;51.504;11.548;2022-12-07T09:04:00;3.18;97.23
64599;SHT31;51008;51.504;11.548;2022-12-07T09:09:02;3.15;97.10
64599;SHT31;51008;51.504;11.548;2022-12-07T09:14:03;3.09;97.34
64599;SHT31;51008;51.504;11.548;2022-12-07T09:19:04;3.12;97.41
64599;SHT31;51008;51.504;11.548;2022-12-07T09:24:06;3.12;97.60
64599;SHT31;51008;51.504;11.548;2022-12-07T09:29:07;3.16;97.66
64599;SHT31;51008;51.504;11.548;2022-12-07T09:34:08;3.31;97.11
64599;SHT31;51008;51.504;11.548;2022-12-07T09:39:09;3.39;97.35
64599;SHT31;51008;51.504;11.548;2022-12-07T09:44:13;3.36;96.97
64599;SHT31;51008;51.504;11.548;2022-12-07T09:49:18;3.19;97.92
64599;SHT31;51008;51.504;11.548;2022-12-07T09:54:20;3.18;98.26
64599;SHT31;51008;51.504;11.548;2022-12-07T09:59:20;3.18;98.48
64599;SHT31;51008;51.504;11.548;2022-12-07T10:04:24;3.21;98.70
64599;SHT31;51008;51.504;11.548;2022-12-07T10:09:26;3.32;98.83
64599;SHT31;51008;51.504;11.548;2022-12-07T10:14:29;3.42;98.79
64599;SHT31;51008;51.504;11.548;2022-12-07T10:19:32;3.56;98.40
64599;SHT31;51008;51.504;11.548;2022-12-07T10:24:33;3.73;97.45
64599;SHT31;51008;51.504;11.548;2022-12-07T10:29:37;3.91;97.09
64599;SHT31;51008;51.504;11.548;2022-12-07T10:34:38;3.99;96.55
64599;SHT31;51008;51.504;11.548;2022-12-07T10:39:54;4.02;95.60
64599;SHT31;51008;51.504;11.548;2022-12-07T10:50:29;4.13;95.30
64599;SHT31;51008;51.504;11.548;2022-12-07T11:01:18;4.45;94.05
64599;SHT31;51008;51.504;11.548;2022-12-07T11:06:39;4.58;93.04
64599;SHT31;51008;51.504;11.548;2022-12-07T11:11:54;4.80;93.40
64599;SHT31;51008;51.504;11.548;2022-12-07T11:17:09;5.12;90.96
64599;SHT31;51008;51.504;11.548;2022-12-07T11:22:27;5.05;90.30
64599;SHT31;51008;51.504;11.548;2022-12-07T11:27:41;4.84;89.95
64599;SHT31;51008;51.504;11.548;2022-12-07T11:33:04;4.63;90.93
64599;SHT31;51008;51.504;11.548;2022-12-07T11:43:14;4.42;90.93
64599;SHT31;51008;51.504;11.548;2022-12-07T11:48:24;4.40;91.18
64599;SHT31;51008;51.504;11.548;2022-12-07T11:53:39;4.38;91.10
64599;SHT31;51008;51.504;11.548;2022-12-07T12:09:17;4.36;92.32
64599;SHT31;51008;51.504;11.548;2022-12-07T12:20:06;4.29;91.82
64599;SHT31;51008;51.504;11.548;2022-12-07T12:25:21;4.22;91.36
64599;SHT31;51008;51.504;11.548;2022-12-07T12:30:39;4.19;91.77
64599;SHT31;51008;51.504;11.548;2022-12-07T12:35:41;4.16;91.49
64599;SHT31;51008;51.504;11.548;2022-12-07T12:40:43;4.13;91.85
64599;SHT31;51008;51.504;11.548;2022-12-07T12:45:44;4.11;91.78
64599;SHT31;51008;51.504;11.548;2022-12-07T12:50:45;4.13;91.65
64599;SHT31;51008;51.504;11.548;2022-12-07T13:06:36;3.95;92.36
64599;SHT31;51008;51.504;11.548;2022-12-07T13:11:41;3.83;92.52
64599;SHT31;51008;51.504;11.548;2022-12-07T13:16:45;3.84;92.34
64599;SHT31;51008;51.504;11.548;2022-12-07T13:21:46;3.80;91.95
64599;SHT31;51008;51.504;11.548;2022-12-07T13:26:48;3.74;92.26
64599;SHT31;51008;51.504;11.548;2022-12-07T13:31:54;3.59;92.75
64599;SHT31;51008;51.504;11.548;2022-12-07T13:36:56;3.55;93.22
64599;SHT31;51008;51.504;11.548;2022-12-07T13:41:58;3.59;92.79
64599;SHT31;51008;51.504;11.548;2022-12-07T13:52:30;3.58;92.83
64599;SHT31;51008;51.504;11.548;2022-12-07T13:57:33;3.55;92.58
64599;SHT31;51008;51.504;11.548;2022-12-07T14:02:35;3.52;92.55
64599;SHT31;51008;51.504;11.548;2022-12-07T14:07:58;3.46;92.54
64599;SHT31;51008;51.504;11.548;2022-12-07T14:13:01;3.40;92.58
64599;SHT31;51008;51.504;11.548;2022-12-07T14:18:03;3.40;92.18
64599;SHT31;51008;51.504;11.548;2022-12-07T14:23:05;3.35;92.07
64599;SHT31;51008;51.504;11.548;2022-12-07T14:28:28;3.32;92.26
64599;SHT31;51008;51.504;11.548;2022-12-07T14:33:29;3.38;91.97
64599;SHT31;51008;51.504;11.548;2022-12-07T14:38:31;3.33;91.76
64599;SHT31;51008;51.504;11.548;2022-12-07T14:43:31;3.31;91.93
64599;SHT31;51008;51.504;11.548;2022-12-07T14:48:33;3.31;91.68
64599;SHT31;51008;51.504;11.548;2022-12-07T14:53:38;3.35;91.85
64599;SHT31;51008;51.504;11.548;2022-12-07T14:58:40;3.25;92.35
64599;SHT31;51008;51.504;11.548;2022-12-07T15:03:41;3.28;91.99
64599;SHT31;51008;51.504;11.548;2022-12-07T15:08:42;3.22;92.41
64599;SHT31;51008;51.504;11.548;2022-12-07T15:13:43;3.18;92.46
64599;SHT31;51008;51.504;11.548;2022-12-07T15:18:44;3.24;91.97
64599;SHT31;51008;51.504;11.548;2022-12-07T15:23:48;3.16;92.53
64599;SHT31;51008;51.504;11.548;2022-12-07T15:28:53;3.12;92.32
64599;SHT31;51008;51.504;11.548;2022-12-07T15:33:54;2.98;93.15
64599;SHT31;51008;51.504;11.548;2022-12-07T15:38:55;2.93;93.80
64599;SHT31;51008;51.504;11.548;2022-12-07T15:43:56;2.81;94.29
64599;SHT31;51008;51.504;11.548;2022-12-07T15:48:57;2.80;94.40
64599;SHT31;51008;51.504;11.548;2022-12-07T15:53:58;2.80;94.46
64599;SHT31;51008;51.504;11.548;2022-12-07T15:58:59;2.80;94.20
64599;SHT31;51008;51.504;11.548;2022-12-07T16:04:00;2.86;93.86
64599;SHT31;51008;51.504;11.548;2022-12-07T16:09:02;2.80;94.21
64599;SHT31;51008;51.504;11.548;2022-12-07T16:14:03;2.76;94.28
64599;SHT31;51008;51.504;11.548;2022-12-07T16:19:04;2.84;94.01
64599;SHT31;51008;51.504;11.548;2022-12-07T16:24:06;2.88;93.93
64599;SHT31;51008;51.504;11.548;2022-12-07T16:29:11;2.94;93.56
64599;SHT31;51008;51.504;11.548;2022-12-07T16:34:12;2.91;93.41
64599;SHT31;51008;51.504;11.548;2022-12-07T16:39:13;2.76;93.82
64599;SHT31;51008;51.504;11.548;2022-12-07T16:44:14;2.79;93.56
64599;SHT31;51008;51.504;11.548;2022-12-07T16:49:15;2.76;93.69
64599;SHT31;51008;51.504;11.548;2022-12-07T16:54:17;2.79;93.30
64599;SHT31;51008;51.504;11.548;2022-12-07T16:59:18;2.80;92.84
64599;SHT31;51008;51.504;11.548;2022-12-07T17:04:19;2.77;92.97
64599;SHT31;51008;51.504;11.548;2022-12-07T17:09:20;2.76;93.09
64599;SHT31;51008;51.504;11.548;2022-12-07T17:14:21;2.73;93.05
64599;SHT31;51008;51.504;11.548;2022-12-07T17:19:22;2.67;93.25
64599;SHT31;51008;51.504;11.548;2022-12-07T17:30:27;2.60;93.77
64599;SHT31;51008;51.504;11.548;2022-12-07T17:35:28;2.59;93.97
64599;SHT31;51008;51.504;11.548;2022-12-07T17:40:29;2.60;93.77
64599;SHT31;51008;51.504;11.548;2022-12-07T17:45:30;2.63;93.91
64599;SHT31;51008;51.504;11.548;2022-12-07T17:50:31;2.57;93.97
64599;SHT31;51008;51.504;11.548;2022-12-07T17:55:32;2.59;94.05
64599;SHT31;51008;51.504;11.548;2022-12-07T18:00:33;2.66;93.57
64599;SHT31;51008;51.504;11.548;2022-12-07T18:05:42;2.57;93.99
64599;SHT31;51008;51.504;11.548;2022-12-07T18:10:43;2.60;93.96
64599;SHT31;51008;51.504;11.548;2022-12-07T18:15:44;2.59;94.15
64599;SHT31;51008;51.504;11.548;2022-12-07T18:20:45;2.57;94.25
64599;SHT31;51008;51.504;11.548;2022-12-07T18:25:50;2.64;94.31
64599;SHT31;51008;51.504;11.548;2022-12-07T18:30:52;2.64;94.28
64599;SHT31;51008;51.504;11.548;2022-12-07T18:35:54;2.66;94.40
64599;SHT31;51008;51.504;11.548;2022-12-07T18:40:55;2.73;94.50
64599;SHT31;51008;51.504;11.548;2022-12-07T18:45:59;2.72;94.66
64599;SHT31;51008;51.504;11.548;2022-12-07T18:51:01;2.72;94.36
64599;SHT31;51008;51.504;11.548;2022-12-07T18:56:05;2.73;94.21
64599;SHT31;51008;51.504;11.548;2022-12-07T19:01:07;2.69;94.23
64599;SHT31;51008;51.504;11.548;2022-12-07T19:06:08;2.56;94.64
64599;SHT31;51008;51.504;11.548;2022-12-07T19:11:19;2.49;95.00
64599;SHT31;51008;51.504;11.548;2022-12-07T19:16:20;2.46;95.19
64599;SHT31;51008;51.504;11.548;2022-12-07T19:21:21;2.48;95.21
64599;SHT31;51008;51.504;11.548;2022-12-07T19:26:23;2.45;95.27
64599;SHT31;51008;51.504;11.548;2022-12-07T19:31:24;2.39;95.35
64599;SHT31;51008;51.504;11.548;2022-12-07T19:36:25;2.44;94.96
64599;SHT31;51008;51.504;11.548;2022-12-07T19:41:26;2.50;94.80
64599;SHT31;51008;51.504;11.548;2022-12-07T19:46:27;2.38;94.97
64599;SHT31;51008;51.504;11.548;2022-12-07T19:51:30;2.41;94.93
64599;SHT31;51008;51.504;11.548;2022-12-07T19:56:31;2.36;95.04
64599;SHT31;51008;51.504;11.548;2022-12-07T20:01:33;2.35;94.91
64599;SHT31;51008;51.504;11.548;2022-12-07T20:06:34;2.29;95.24
64599;SHT31;51008;51.504;11.548;2022-12-07T20:11:36;2.28;95.13
64599;SHT31;51008;51.504;11.548;2022-12-07T20:16:38;2.28;95.30
64599;SHT31;51008;51.504;11.548;2022-12-07T20:21:40;2.36;94.77
64599;SHT31;51008;51.504;11.548;2022-12-07T20:26:42;2.32;94.95
64599;SHT31;51008;51.504;11.548;2022-12-07T20:31:45;2.38;94.83
64599;SHT31;51008;51.504;11.548;2022-12-07T20:36:46;2.36;94.74
64599;SHT31;51008;51.504;11.548;2022-12-07T20:41:47;2.42;94.59
64599;SHT31;51008;51.504;11.548;2022-12-07T20:46:49;2.36;94.64
64599;SHT31;51008;51.504;11.548;2022-12-07T20:51:50;2.38;94.74
64599;SHT31;51008;51.504;11.548;2022-12-07T20:56:51;2.39;94.83
64599;SHT31;51008;51.504;11.548;2022-12-07T21:01:52;2.41;94.99
64599;SHT31;51008;51.504;11.548;2022-12-07T21:06:53;2.45;94.84
64599;SHT31;51008;51.504;11.548;2022-12-07T21:11:54;2.48;94.62
64599;SHT31;51008;51.504;11.548;2022-12-07T21:16:55;2.48;94.70
64599;SHT31;51008;51.504;11.548;2022-12-07T21:21:56;2.42;95.24
64599;SHT31;51008;51.504;11.548;2022-12-07T21:26:57;2.36;95.37
64599;SHT31;51008;51.504;11.548;2022-12-07T21:31:58;2.39;95.29
64599;SHT31;51008;51.504;11.548;2022-12-07T21:37:00;2.36;95.21
64599;SHT31;51008;51.504;11.548;2022-12-07T21:42:01;2.31;95.14
64599;SHT31;51008;51.504;11.548;2022-12-07T21:47:02;2.32;95.11
64599;SHT31;51008;51.504;11.548;2022-12-07T21:52:04;2.32;95.10
64599;SHT31;51008;51.504;11.548;2022-12-07T21:57:05;2.25;95.24
64599;SHT31;51008;51.504;11.548;2022-12-07T22:02:11;2.18;95.53
64599;SHT31;51008;51.504;11.548;2022-12-07T22:07:13;2.15;95.64
64599;SHT31;51008;51.504;11.548;2022-12-07T22:12:14;2.13;95.89
64599;SHT31;51008;51.504;11.548;2022-12-07T22:17:15;2.11;95.80
64599;SHT31;51008;51.504;11.548;2022-12-07T22:22:16;2.07;95.73
64599;SHT31;51008;51.504;11.548;2022-12-07T22:27:17;2.13;95.51
64599;SHT31;51008;51.504;11.548;2022-12-07T22:32:18;2.04;95.72
64599;SHT31;51008;51.504;11.548;2022-12-07T22:37:19;2.04;95.95
64599;SHT31;51008;51.504;11.548;2022-12-07T22:42:20;2.00;96.11
64599;SHT31;51008;51.504;11.548;2022-12-07T22:47:21;1.99;96.34
64599;SHT31;51008;51.504;11.548;2022-12-07T22:52:22;2.03;96.18
64599;SHT31;51008;51.504;11.548;2022-12-07T22:57:24;2.06;96.18
64599;SHT31;51008;51.504;11.548;2022-12-07T23:02:25;2.13;95.86
64599;SHT31;51008;51.504;11.548;2022-12-07T23:07:26;2.10;95.60
64599;SHT31;51008;51.504;11.548;2022-12-07T23:12:27;2.17;95.56
64599;SHT31;51008;51.504;11.548;2022-12-07T23:17:28;2.14;95.87
64599;SHT31;51008;51.504;11.548;2022-12-07T23:22:29;2.25;95.94
64599;SHT31;51008;51.504;11.548;2022-12-07T23:27:30;2.20;96.02
64599;SHT31;51008;51.504;11.548;2022-12-07T23:32:31;2.22;95.95
64599;SHT31;51008;51.504;11.548;2022-12-07T23:37:32;2.18;96.23
64599;SHT31;51008;51.504;11.548;2022-12-07T23:42:33;2.21;96.21
64599;SHT31;51008;51.504;11.548;2022-12-07T23:47:34;2.22;96.16
64599;SHT31;51008;51.504;11.548;2022-12-07T23:52:35;2.17;96.60
64599;SHT31;51008;51.504;11.548;2022-12-07T23:57:36;2.18;96.44
